createdAt,value
2022-11-24T00:02:19.717Z,100.00
2022-11-24T00:04:47.538Z,100.00
2022-11-24T00:07:15.413Z,100.00
2022-11-24T00:09:43.246Z,100.00
2022-11-24T00:12:10.982Z,100.00
2022-11-24T00:14:38.743Z,100.00
2022-11-24T00:17:06.596Z,100.00
2022-11-24T00:19:34.400Z,100.00
2022-11-24T00:22:02.219Z,100.00
2022-11-24T00:24:29.917Z,100.00
2022-11-24T00:26:57.809Z,100.00
2022-11-24T00:29:25.592Z,100.00
2022-11-24T00:31:53.335Z,100.00
2022-11-24T00:34:21.355Z,100.00
2022-11-24T00:36:49.240Z,100.00
2022-11-24T00:39:17.195Z,100.00
2022-11-24T00:41:45.198Z,100.00
2022-11-24T00:44:12.894Z,100.00
2022-11-24T00:46:40.754Z,100.00
2022-11-24T00:49:08.745Z,100.00
2022-11-24T00:51:36.709Z,100.00
2022-11-24T00:54:04.709Z,100.00
2022-11-24T00:56:32.635Z,100.00
2022-11-24T00:59:05.075Z,100.00
2022-11-24T01:01:32.821Z,100.00
2022-11-24T01:04:05.312Z,100.00
2022-11-24T01:06:33.730Z,100.00
2022-11-24T01:09:01.578Z,100.00
2022-11-24T01:11:56.504Z,100.00
2022-11-24T01:14:24.771Z,100.00
2022-11-24T01:16:52.707Z,100.00
2022-11-24T01:19:23.174Z,100.00
2022-11-24T01:21:51.307Z,100.00
2022-11-24T01:24:19.165Z,100.00
2022-11-24T01:26:47.046Z,100.00
2022-11-24T01:29:15.131Z,100.00
2022-11-24T01:31:43.047Z,100.00
2022-11-24T01:34:10.999Z,100.00
2022-11-24T01:36:43.527Z,100.00
2022-11-24T01:39:11.337Z,100.00
2022-11-24T01:41:39.137Z,100.00
2022-11-24T01:44:45.667Z,100.00
2022-11-24T01:47:13.415Z,100.00
2022-11-24T01:49:44.099Z,100.00
2022-11-24T01:52:17.369Z,100.00
2022-11-24T01:54:56.254Z,100.00
2022-11-24T01:57:26.340Z,100.00
2022-11-24T02:00:09.845Z,100.00
2022-11-24T02:02:37.679Z,100.00
2022-11-24T02:05:09.480Z,100.00
2022-11-24T02:07:37.358Z,100.00
2022-11-24T02:10:13.618Z,100.00
2022-11-24T02:12:45.037Z,100.00
2022-11-24T02:15:14.419Z,100.00
2022-11-24T02:17:42.168Z,100.00
2022-11-24T02:20:10.816Z,100.00
2022-11-24T02:22:56.165Z,100.00
2022-11-24T02:25:23.948Z,100.00
2022-11-24T02:27:54.044Z,100.00
2022-11-24T02:30:26.420Z,100.00
2022-11-24T02:32:58.808Z,100.00
2022-11-24T02:35:28.556Z,100.00
2022-11-24T02:37:56.395Z,100.00
2022-11-24T02:40:26.908Z,100.00
2022-11-24T02:42:56.631Z,100.00
2022-11-24T02:45:29.048Z,100.00
2022-11-24T02:47:56.994Z,100.00
2022-11-24T02:50:24.819Z,100.00
2022-11-24T02:52:52.636Z,100.00
2022-11-24T02:55:21.388Z,100.00
2022-11-24T02:57:49.197Z,100.00
2022-11-24T03:00:17.533Z,100.00
2022-11-24T03:02:45.426Z,100.00
2022-11-24T03:05:13.516Z,100.00
2022-11-24T03:07:41.397Z,100.00
2022-11-24T03:10:09.557Z,100.00
2022-11-24T03:12:37.363Z,100.00
2022-11-24T03:15:06.103Z,100.00
2022-11-24T03:17:38.541Z,100.00
2022-11-24T03:20:06.727Z,100.00
2022-11-24T03:22:39.091Z,100.00
2022-11-24T03:25:07.424Z,100.00
2022-11-24T03:27:35.316Z,100.00
2022-11-24T03:30:03.227Z,100.00
2022-11-24T03:32:31.104Z,100.00
2022-11-24T03:34:58.873Z,100.00
2022-11-24T03:37:26.799Z,100.00
2022-11-24T03:39:54.659Z,100.00
2022-11-24T03:42:22.584Z,100.00
2022-11-24T03:44:50.377Z,100.00
2022-11-24T03:47:18.103Z,100.00
2022-11-24T03:49:46.260Z,100.00
2022-11-24T03:52:14.006Z,100.00
2022-11-24T03:54:46.488Z,100.00
2022-11-24T03:57:14.589Z,100.00
2022-11-24T03:59:42.309Z,100.00
2022-11-24T04:02:10.239Z,100.00
2022-11-24T04:04:38.101Z,100.00
2022-11-24T04:07:06.003Z,100.00
2022-11-24T04:09:33.855Z,100.00
2022-11-24T04:12:20.267Z,100.00
2022-11-24T04:14:48.176Z,100.00
2022-11-24T04:17:15.919Z,100.00
2022-11-24T04:19:43.740Z,100.00
2022-11-24T04:22:11.646Z,100.00
2022-11-24T04:24:39.374Z,100.00
2022-11-24T04:27:07.157Z,100.00
2022-11-24T04:29:35.096Z,100.00
2022-11-24T04:32:03.134Z,100.00
2022-11-24T04:34:30.894Z,100.00
2022-11-24T04:36:58.924Z,100.00
2022-11-24T04:39:28.565Z,100.00
2022-11-24T04:41:56.757Z,100.00
2022-11-24T04:44:24.639Z,100.00
2022-11-24T04:46:52.667Z,100.00
2022-11-24T04:49:20.539Z,100.00
2022-11-24T04:51:48.415Z,100.00
2022-11-24T04:54:16.639Z,100.00
2022-11-24T04:56:45.230Z,100.00
2022-11-24T04:59:16.272Z,100.00
2022-11-24T05:01:44.763Z,100.00
2022-11-24T05:04:13.436Z,100.00
2022-11-24T05:06:41.380Z,100.00
2022-11-24T05:09:09.162Z,100.00
2022-11-24T05:11:37.116Z,100.00
2022-11-24T05:14:05.020Z,100.00
2022-11-24T05:16:33.069Z,100.00
2022-11-24T05:19:01.062Z,100.00
2022-11-24T05:21:29.192Z,100.00
2022-11-24T05:23:57.175Z,100.00
2022-11-24T05:26:25.024Z,100.00
2022-11-24T05:28:52.807Z,100.00
2022-11-24T05:31:20.855Z,100.00
2022-11-24T05:33:48.671Z,100.00
2022-11-24T05:36:37.248Z,100.00
2022-11-24T05:39:05.215Z,100.00
2022-11-24T05:41:33.149Z,100.00
2022-11-24T05:44:01.094Z,100.00
2022-11-24T05:46:28.931Z,100.00
2022-11-24T05:48:56.762Z,100.00
2022-11-24T05:51:24.592Z,100.00
2022-11-24T05:53:52.544Z,100.00
2022-11-24T05:56:20.614Z,100.00
2022-11-24T05:58:48.406Z,100.00
2022-11-24T06:01:16.139Z,100.00
2022-11-24T06:03:44.058Z,100.00
2022-11-24T06:06:12.179Z,100.00
2022-11-24T06:08:40.283Z,100.00
2022-11-24T06:11:20.233Z,100.00
2022-11-24T06:13:49.705Z,100.00
2022-11-24T06:16:17.708Z,100.00
2022-11-24T06:18:45.664Z,100.00
2022-11-24T06:21:13.670Z,100.00
2022-11-24T06:23:41.889Z,100.00
2022-11-24T06:26:10.341Z,100.00
2022-11-24T06:28:42.873Z,100.00
2022-11-24T06:31:15.497Z,100.00
2022-11-24T06:33:43.459Z,100.00
2022-11-24T06:36:12.214Z,100.00
2022-11-24T06:38:40.061Z,100.00
2022-11-24T06:41:09.656Z,100.00
2022-11-24T06:43:37.889Z,100.00
2022-11-24T06:46:05.940Z,100.00
2022-11-24T06:48:38.476Z,100.00
2022-11-24T06:51:10.313Z,100.00
2022-11-24T06:53:39.257Z,100.00
2022-11-24T06:56:15.300Z,100.00
2022-11-24T06:58:45.737Z,100.00
2022-11-24T07:01:24.269Z,100.00
2022-11-24T07:03:53.195Z,100.00
2022-11-24T07:06:21.388Z,100.00
2022-11-24T07:08:49.253Z,100.00
2022-11-24T07:11:19.190Z,100.00
2022-11-24T07:13:47.362Z,99.54
2022-11-24T07:16:20.601Z,98.36
2022-11-24T07:18:49.296Z,98.81
2022-11-24T07:21:17.481Z,98.25
2022-11-24T07:23:45.325Z,98.81
2022-11-24T07:26:13.385Z,99.61
2022-11-24T07:28:41.443Z,100.00
2022-11-24T07:31:13.680Z,100.00
2022-11-24T07:33:41.659Z,100.00
2022-11-24T07:36:10.015Z,100.00
2022-11-24T07:38:38.002Z,99.98
2022-11-24T07:41:07.657Z,99.84
2022-11-24T07:43:36.408Z,100.00
2022-11-24T07:46:04.536Z,100.00
2022-11-24T07:48:33.267Z,100.00
2022-11-24T07:51:01.734Z,100.00
2022-11-24T07:53:29.906Z,99.32
2022-11-24T07:56:01.875Z,97.89
2022-11-24T07:58:33.841Z,98.34
2022-11-24T08:01:06.320Z,98.33
2022-11-24T08:03:39.530Z,97.30
2022-11-24T08:06:26.062Z,97.69
2022-11-24T08:08:56.248Z,96.80
2022-11-24T08:11:24.078Z,97.69
2022-11-24T08:13:52.047Z,97.14
2022-11-24T08:16:20.637Z,97.30
2022-11-24T08:18:53.111Z,96.83
2022-11-24T08:21:20.999Z,96.79
2022-11-24T08:23:48.898Z,96.13
2022-11-24T08:26:19.086Z,96.18
2022-11-24T08:28:47.478Z,97.69
2022-11-24T08:31:17.237Z,96.00
2022-11-24T08:33:50.059Z,97.06
2022-11-24T08:36:19.300Z,96.02
2022-11-24T08:38:47.481Z,96.22
2022-11-24T08:41:16.331Z,96.98
2022-11-24T08:43:44.206Z,98.95
2022-11-24T08:46:14.962Z,100.00
2022-11-24T08:48:42.897Z,100.00
2022-11-24T08:51:12.782Z,100.00
2022-11-24T08:53:40.947Z,100.00
2022-11-24T08:56:12.410Z,100.00
2022-11-24T08:58:40.596Z,100.00
2022-11-24T09:01:16.118Z,100.00
2022-11-24T09:03:49.904Z,100.00
2022-11-24T09:06:26.250Z,100.00
2022-11-24T09:09:03.846Z,100.00
2022-11-24T09:11:32.047Z,100.00
2022-11-24T09:13:59.975Z,100.00
2022-11-24T09:16:29.819Z,100.00
2022-11-24T09:19:04.112Z,100.00
2022-11-24T09:21:32.681Z,100.00
2022-11-24T09:24:00.610Z,100.00
2022-11-24T09:26:30.537Z,100.00
2022-11-24T09:28:58.813Z,100.00
2022-11-24T09:31:29.346Z,100.00
2022-11-24T09:33:57.457Z,100.00
2022-11-24T09:36:25.537Z,100.00
2022-11-24T09:38:53.714Z,100.00
2022-11-24T09:41:49.779Z,100.00
2022-11-24T09:44:36.029Z,100.00
2022-11-24T09:47:15.469Z,100.00
2022-11-24T09:49:56.503Z,100.00
2022-11-24T09:53:02.393Z,100.00
2022-11-24T09:55:46.489Z,100.00
2022-11-24T09:58:45.048Z,98.24
2022-11-24T10:01:32.148Z,97.96
2022-11-24T10:04:05.966Z,97.80
2022-11-24T10:06:40.070Z,95.62
2022-11-24T10:09:17.180Z,95.63
2022-11-24T10:12:05.980Z,96.67
2022-11-24T10:14:55.087Z,97.57
2022-11-24T10:17:26.303Z,97.60
2022-11-24T10:20:39.274Z,97.67
2022-11-24T10:24:04.541Z,97.08
2022-11-24T10:26:39.179Z,97.53
2022-11-24T10:29:30.284Z,96.76
2022-11-24T10:31:58.254Z,95.65
2022-11-24T10:34:35.801Z,95.48
2022-11-24T10:37:12.990Z,94.96
2022-11-24T10:39:49.738Z,95.87
2022-11-24T10:42:21.780Z,97.57
2022-11-24T10:44:49.721Z,98.85
2022-11-24T10:47:25.364Z,100.00
2022-11-24T10:50:05.872Z,100.00
2022-11-24T10:52:38.185Z,100.00
2022-11-24T10:55:06.452Z,100.00
2022-11-24T10:57:35.872Z,100.00
2022-11-24T11:00:24.658Z,100.00
2022-11-24T11:02:53.338Z,100.00
2022-11-24T11:05:28.576Z,100.00
2022-11-24T11:08:15.309Z,99.24
2022-11-24T11:10:43.976Z,100.00
2022-11-24T11:13:25.526Z,99.99
2022-11-24T11:15:53.461Z,97.57
2022-11-24T11:18:21.448Z,93.05
2022-11-24T11:20:56.590Z,92.89
2022-11-24T11:23:35.056Z,90.71
2022-11-24T11:26:33.140Z,88.02
2022-11-24T11:34:51.715Z,96.91
2022-11-24T11:37:19.879Z,98.95
2022-11-24T11:39:49.344Z,98.66
2022-11-24T11:43:00.033Z,98.89
2022-11-24T11:45:21.649Z,100.00
2022-11-24T11:47:56.956Z,100.00
2022-11-24T11:50:42.923Z,100.00
2022-11-24T11:53:25.845Z,100.00
2022-11-24T11:56:17.643Z,100.00
2022-11-24T11:59:04.259Z,100.00
2022-11-24T12:01:44.049Z,100.00
2022-11-24T12:04:17.977Z,100.00
2022-11-24T12:07:01.184Z,99.57
2022-11-24T12:09:36.021Z,100.00
2022-11-24T12:12:34.031Z,100.00
2022-11-24T12:15:13.640Z,100.00
2022-11-24T12:18:13.549Z,99.83
2022-11-24T12:21:21.360Z,98.15
2022-11-24T12:24:19.958Z,98.65
2022-11-24T12:26:58.154Z,98.41
2022-11-24T12:29:44.136Z,98.54
2022-11-24T12:32:42.638Z,99.77
2022-11-24T12:35:20.125Z,99.15
2022-11-24T12:38:12.636Z,98.74
2022-11-24T12:41:39.590Z,97.50
2022-11-24T12:44:00.300Z,97.65
2022-11-24T12:46:48.201Z,97.02
2022-11-24T12:49:28.690Z,96.02
2022-11-24T12:52:00.913Z,94.57
2022-11-24T12:54:39.117Z,95.21
2022-11-24T12:57:08.503Z,95.50
2022-11-24T13:00:00.871Z,93.22
2022-11-24T13:02:50.786Z,90.20
2022-11-24T13:05:39.535Z,90.36
2022-11-24T13:08:07.362Z,88.92
2022-11-24T13:10:57.107Z,86.73
2022-11-24T13:13:29.009Z,86.32
2022-11-24T13:17:13.015Z,88.38
2022-11-24T13:18:45.162Z,87.36
2022-11-24T13:21:42.573Z,88.59
2022-11-24T13:24:20.280Z,89.64
2022-11-24T13:27:20.948Z,89.93
2022-11-24T13:29:49.998Z,88.75
2022-11-24T13:32:20.619Z,88.36
2022-11-24T13:34:55.952Z,88.81
2022-11-24T13:37:31.681Z,89.93
2022-11-24T13:40:13.354Z,89.90
2022-11-24T13:42:56.534Z,90.63
2022-11-24T13:45:50.307Z,89.51
2022-11-24T13:48:21.418Z,89.42
2022-11-24T13:50:55.573Z,89.42
2022-11-24T13:53:36.177Z,88.43
2022-11-24T13:56:03.841Z,87.19
2022-11-24T13:58:37.266Z,87.16
2022-11-24T14:01:33.295Z,86.96
2022-11-24T14:04:30.011Z,87.37
2022-11-24T14:07:07.423Z,88.22
2022-11-24T14:09:42.380Z,88.62
2022-11-24T14:12:19.071Z,89.54
2022-11-24T14:14:48.267Z,89.66
2022-11-24T14:17:29.550Z,90.50
2022-11-24T14:19:58.125Z,89.46
2022-11-24T14:22:32.606Z,89.95
2022-11-24T14:25:01.745Z,90.15
2022-11-24T14:27:37.408Z,89.57
2022-11-24T14:30:18.223Z,91.02
2022-11-24T14:33:10.795Z,90.52
2022-11-24T14:35:44.530Z,90.98
2022-11-24T14:38:13.055Z,89.79
2022-11-24T14:40:44.812Z,90.12
2022-11-24T14:43:20.159Z,90.39
2022-11-24T14:46:00.405Z,90.42
2022-11-24T14:48:32.921Z,90.32
2022-11-24T14:51:30.404Z,90.76
2022-11-24T14:54:00.143Z,90.28
2022-11-24T14:56:29.993Z,90.52
2022-11-24T14:58:58.349Z,90.61
2022-11-24T15:01:28.865Z,91.56
2022-11-24T15:04:26.948Z,90.84
2022-11-24T15:07:14.417Z,91.82
2022-11-24T15:10:01.955Z,93.67
2022-11-24T15:12:35.086Z,93.62
2022-11-24T15:15:03.385Z,95.20
2022-11-24T15:17:31.594Z,95.14
2022-11-24T15:20:02.368Z,93.74
2022-11-24T15:22:43.525Z,94.98
2022-11-24T15:25:28.604Z,94.63
2022-11-24T15:27:56.662Z,95.58
2022-11-24T15:30:24.521Z,96.10
2022-11-24T15:32:59.137Z,96.39
2022-11-24T15:35:28.176Z,96.56
2022-11-24T15:37:56.005Z,97.53
2022-11-24T15:40:23.833Z,98.51
2022-11-24T15:42:56.221Z,99.20
2022-11-24T15:45:25.667Z,99.07
2022-11-24T15:47:53.768Z,98.95
2022-11-24T15:50:21.714Z,98.99
2022-11-24T15:52:49.526Z,99.50
2022-11-24T15:55:21.924Z,99.73
2022-11-24T15:57:50.151Z,100.00
2022-11-24T16:00:19.298Z,99.71
2022-11-24T16:02:47.147Z,99.23
2022-11-24T16:05:15.162Z,99.40
2022-11-24T16:07:43.100Z,99.18
2022-11-24T16:10:39.953Z,100.00
2022-11-24T16:13:07.747Z,99.54
2022-11-24T16:15:35.605Z,100.00
2022-11-24T16:18:04.306Z,100.00
2022-11-24T16:20:37.082Z,100.00
2022-11-24T16:23:05.301Z,100.00
2022-11-24T16:25:33.308Z,100.00
2022-11-24T16:28:01.093Z,100.00
2022-11-24T16:30:28.919Z,100.00
2022-11-24T16:32:56.729Z,100.00
2022-11-24T16:35:24.561Z,100.00
2022-11-24T16:37:52.895Z,100.00
2022-11-24T16:40:20.888Z,100.00
2022-11-24T16:42:48.770Z,100.00
2022-11-24T16:45:16.651Z,100.00
2022-11-24T16:47:44.463Z,100.00
2022-11-24T16:50:12.622Z,100.00
2022-11-24T16:52:40.494Z,100.00
2022-11-24T16:55:09.549Z,100.00
2022-11-24T16:57:38.082Z,100.00
2022-11-24T17:00:07.018Z,100.00
2022-11-24T17:02:35.085Z,100.00
2022-11-24T17:05:03.339Z,100.00
2022-11-24T17:07:31.196Z,100.00
2022-11-24T17:10:01.050Z,100.00
2022-11-24T17:12:28.924Z,100.00
2022-11-24T17:15:24.337Z,100.00
2022-11-24T17:18:08.455Z,100.00
2022-11-24T17:20:33.615Z,100.00
2022-11-24T17:23:01.448Z,100.00
2022-11-24T17:25:29.255Z,100.00
2022-11-24T17:27:57.042Z,100.00
2022-11-24T17:30:24.881Z,100.00
2022-11-24T17:32:56.723Z,100.00
2022-11-24T17:35:24.894Z,100.00
2022-11-24T17:37:52.672Z,100.00
2022-11-24T17:40:28.259Z,100.00
2022-11-24T17:43:01.202Z,100.00
2022-11-24T17:45:29.558Z,100.00
2022-11-24T17:47:58.384Z,100.00
2022-11-24T17:50:26.717Z,100.00
2022-11-24T17:52:55.229Z,100.00
2022-11-24T17:55:23.579Z,100.00
2022-11-24T17:57:51.744Z,100.00
2022-11-24T18:00:19.812Z,100.00
2022-11-24T18:02:47.651Z,100.00
2022-11-24T18:05:15.572Z,100.00
2022-11-24T18:07:43.380Z,100.00
2022-11-24T18:10:11.602Z,100.00
2022-11-24T18:12:39.333Z,100.00
2022-11-24T18:15:07.640Z,100.00
2022-11-24T18:17:35.454Z,100.00
2022-11-24T18:20:03.282Z,100.00
2022-11-24T18:22:57.697Z,100.00
2022-11-24T18:25:18.865Z,100.00
2022-11-24T18:27:46.663Z,100.00
2022-11-24T18:30:14.766Z,100.00
2022-11-24T18:32:42.706Z,100.00
2022-11-24T18:35:10.848Z,100.00
2022-11-24T18:37:44.568Z,100.00
2022-11-24T18:40:12.761Z,100.00
2022-11-24T18:42:40.695Z,100.00
2022-11-24T18:45:09.164Z,100.00
2022-11-24T18:47:36.919Z,100.00
2022-11-24T18:50:05.059Z,100.00
2022-11-24T18:52:32.839Z,100.00
2022-11-24T18:55:05.064Z,100.00
2022-11-24T18:57:32.935Z,100.00
2022-11-24T19:00:00.746Z,100.00
2022-11-24T19:02:28.694Z,100.00
2022-11-24T19:04:56.548Z,100.00
2022-11-24T19:07:24.438Z,100.00
2022-11-24T19:09:52.271Z,100.00
2022-11-24T19:12:20.390Z,100.00
2022-11-24T19:14:48.202Z,100.00
2022-11-24T19:17:16.175Z,100.00
2022-11-24T19:19:44.041Z,100.00
2022-11-24T19:22:11.869Z,100.00
2022-11-24T19:24:39.947Z,100.00
2022-11-24T19:27:08.527Z,100.00
2022-11-24T19:29:41.714Z,100.00
2022-11-24T19:32:10.958Z,100.00
2022-11-24T19:34:40.161Z,100.00
2022-11-24T19:37:07.999Z,100.00
2022-11-24T19:39:35.804Z,100.00
2022-11-24T19:42:05.855Z,100.00
2022-11-24T19:44:34.012Z,100.00
2022-11-24T19:47:02.020Z,100.00
2022-11-24T19:49:29.814Z,100.00
2022-11-24T19:51:57.633Z,100.00
2022-11-24T19:54:26.110Z,100.00
2022-11-24T19:56:54.371Z,100.00
2022-11-24T19:59:24.603Z,100.00
2022-11-24T20:01:52.651Z,100.00
2022-11-24T20:04:21.563Z,100.00
2022-11-24T20:06:49.349Z,100.00
2022-11-24T20:09:17.992Z,100.00
2022-11-24T20:11:45.970Z,100.00
2022-11-24T20:14:14.637Z,100.00
2022-11-24T20:16:42.705Z,100.00
2022-11-24T20:19:14.314Z,100.00
2022-11-24T20:21:42.876Z,100.00
2022-11-24T20:24:17.791Z,100.00
2022-11-24T20:26:50.778Z,100.00
2022-11-24T20:29:18.991Z,100.00
2022-11-24T20:31:48.288Z,100.00
2022-11-24T20:34:16.327Z,100.00
2022-11-24T20:36:45.084Z,100.00
2022-11-24T20:39:18.092Z,100.00
2022-11-24T20:41:46.033Z,100.00
2022-11-24T20:44:16.250Z,100.00
2022-11-24T20:46:44.816Z,100.00
2022-11-24T20:49:14.932Z,100.00
2022-11-24T20:51:48.154Z,100.00
2022-11-24T20:54:17.424Z,100.00
2022-11-24T20:56:45.341Z,100.00
2022-11-24T20:59:18.364Z,100.00
2022-11-24T21:01:47.100Z,100.00
2022-11-24T21:04:20.205Z,100.00
2022-11-24T21:06:48.204Z,100.00
2022-11-24T21:09:16.097Z,100.00
2022-11-24T21:11:43.884Z,100.00
2022-11-24T21:14:11.992Z,100.00
2022-11-24T21:16:40.947Z,100.00
2022-11-24T21:19:13.360Z,100.00
2022-11-24T21:21:42.182Z,100.00
2022-11-24T21:24:17.597Z,100.00
2022-11-24T21:26:48.541Z,100.00
2022-11-24T21:29:18.396Z,100.00
2022-11-24T21:31:46.217Z,100.00
2022-11-24T21:34:15.981Z,100.00
2022-11-24T21:36:46.004Z,100.00
2022-11-24T21:39:17.555Z,100.00
2022-11-24T21:41:45.552Z,100.00
2022-11-24T21:44:14.419Z,100.00
2022-11-24T21:46:48.253Z,100.00
2022-11-24T21:49:18.893Z,100.00
2022-11-24T21:51:46.666Z,100.00
2022-11-24T21:54:14.391Z,100.00
2022-11-24T21:56:42.263Z,100.00
2022-11-24T21:59:10.085Z,100.00
2022-11-24T22:01:37.846Z,100.00
2022-11-24T22:04:05.888Z,100.00
2022-11-24T22:06:34.369Z,100.00
2022-11-24T22:09:02.425Z,100.00
2022-11-24T22:11:30.197Z,100.00
2022-11-24T22:13:57.920Z,100.00
2022-11-24T22:16:25.929Z,100.00
2022-11-24T22:18:53.812Z,100.00
2022-11-24T22:21:31.107Z,100.00
2022-11-24T22:23:58.995Z,100.00
2022-11-24T22:26:27.325Z,100.00
2022-11-24T22:28:55.407Z,100.00
2022-11-24T22:31:24.686Z,100.00
2022-11-24T22:33:52.927Z,100.00
2022-11-24T22:36:22.324Z,100.00
2022-11-24T22:38:54.745Z,100.00
2022-11-24T22:41:22.491Z,100.00
2022-11-24T22:43:50.436Z,100.00
2022-11-24T22:46:22.972Z,100.00
2022-11-24T22:48:51.556Z,100.00
2022-11-24T22:51:20.951Z,100.00
2022-11-24T22:53:49.942Z,100.00
2022-11-24T22:56:18.035Z,100.00
2022-11-24T22:58:45.909Z,100.00
2022-11-24T23:01:18.565Z,100.00
2022-11-24T23:03:46.510Z,100.00
2022-11-24T23:06:18.540Z,100.00
2022-11-24T23:08:46.248Z,100.00
2022-11-24T23:11:15.601Z,100.00
2022-11-24T23:13:43.504Z,100.00
2022-11-24T23:16:18.278Z,100.00
2022-11-24T23:18:51.080Z,100.00
2022-11-24T23:21:22.185Z,100.00
2022-11-24T23:23:50.230Z,100.00
2022-11-24T23:26:25.321Z,100.00
2022-11-24T23:28:53.204Z,100.00
2022-11-24T23:31:22.567Z,100.00
2022-11-24T23:33:50.327Z,100.00
2022-11-24T23:36:19.537Z,100.00
2022-11-24T23:38:47.476Z,100.00
2022-11-24T23:41:17.055Z,100.00
2022-11-24T23:43:44.866Z,100.00
2022-11-24T23:46:14.554Z,100.00
2022-11-24T23:48:42.512Z,100.00
2022-11-24T23:51:15.073Z,100.00
2022-11-24T23:53:44.129Z,100.00
2022-11-24T23:56:24.838Z,100.00
2022-11-24T23:58:52.640Z,100.00
